Time;durP1;ratioP1;P1;durP2;ratioP2;P2;SDS_P1;SDS_P2;PMS_P1;PMS_P2;Temp;Humidity;BMP_temperature;BMP_pressure;BME280_temperature;BME280_humidity;BME280_pressure;Samples;Min_cycle;Max_cycle;Signal;HPM_P1;HPM_P2
2023/01/31 00:01:08;;;;;;;;;13.00;11.00;;;;;;;;5078603;28;8836;-66
2023/01/31 00:03:34;;;;;;;;;15.00;14.33;;;;;;;;5079208;28;8832;-67
2023/01/31 00:06:19;;;;;;;;;16.33;13.00;;;;;;;;5080646;28;11526;-65
2023/01/31 00:08:46;;;;;;;;;16.00;13.33;;;;;;;;5075430;28;8841;-66
2023/01/31 00:11:12;;;;;;;;;15.67;15.00;;;;;;;;5078934;28;11695;-66
2023/01/31 00:13:38;;;;;;;;;12.67;10.67;;;;;;;;5078587;28;11645;-66
2023/01/31 00:16:07;;;;;;;;;15.00;12.00;;;;;;;;5080566;28;9607;-66
2023/01/31 00:18:33;;;;;;;;;15.00;12.67;;;;;;;;5079870;28;8830;-66
2023/01/31 00:21:02;;;;;;;;;17.00;11.33;;;;;;;;5078028;28;11553;-66
2023/01/31 00:23:28;;;;;;;;;12.33;11.00;;;;;;;;5078182;28;8828;-65
2023/01/31 00:25:53;;;;;;;;;11.00;11.00;;;;;;;;5079587;28;11589;-65
2023/01/31 00:28:19;;;;;;;;;13.33;13.00;;;;;;;;5077992;28;8818;-65
2023/01/31 00:30:44;;;;;;;;;12.33;10.00;;;;;;;;5078449;28;8877;-67
2023/01/31 00:33:09;;;;;;;;;19.33;14.00;;;;;;;;5078929;28;9540;-65
2023/01/31 00:35:37;;;;;;;;;13.25;11.75;;;;;;;;5080690;28;8822;-65
2023/01/31 00:38:08;;;;;;;;;17.75;11.00;;;;;;;;5076555;28;9588;-66
2023/01/31 00:40:34;;;;;;;;;17.00;15.33;;;;;;;;5078467;28;11486;-66
2023/01/31 00:42:59;;;;;;;;;13.00;12.00;;;;;;;;5079842;28;11607;-65
2023/01/31 00:45:25;;;;;;;;;18.67;13.33;;;;;;;;5078030;28;8814;-66
2023/01/31 00:47:50;;;;;;;;;15.67;13.00;;;;;;;;5075828;28;8830;-65
2023/01/31 00:50:15;;;;;;;;;16.75;13.50;;;;;;;;5069393;28;9530;-66
2023/01/31 00:52:41;;;;;;;;;15.50;12.75;;;;;;;;5069736;28;8949;-66
2023/01/31 00:55:06;;;;;;;;;20.33;15.33;;;;;;;;5069912;28;8817;-66
2023/01/31 00:57:31;;;;;;;;;18.67;12.00;;;;;;;;5068077;28;8886;-65
2023/01/31 00:59:56;;;;;;;;;19.67;15.00;;;;;;;;5069579;28;8898;-66
2023/01/31 01:02:22;;;;;;;;;20.33;13.00;;;;;;;;5069548;28;8802;-66
2023/01/31 01:04:48;;;;;;;;;17.33;16.00;;;;;;;;5069552;28;8928;-66
2023/01/31 01:07:13;;;;;;;;;14.00;11.67;;;;;;;;5069438;28;8818;-65
2023/01/31 01:09:38;;;;;;;;;13.00;13.00;;;;;;;;5069418;28;8791;-65
2023/01/31 01:12:04;;;;;;;;;14.67;12.00;;;;;;;;5069336;28;8787;-65
2023/01/31 01:14:29;;;;;;;;;12.00;10.00;;;;;;;;5069357;28;9586;-65
2023/01/31 01:16:57;;;;;;;;;14.33;12.00;;;;;;;;5069291;28;8826;-66
2023/01/31 01:19:22;;;;;;;;;16.00;15.00;;;;;;;;5069399;28;8972;-66
2023/01/31 01:21:47;;;;;;;;;14.00;12.00;;;;;;;;5068780;28;11507;-65
2023/01/31 01:24:17;;;;;;;;;14.33;12.67;;;;;;;;5069155;28;8895;-65
2023/01/31 01:26:43;;;;;;;;;9.67;9.67;;;;;;;;5069403;28;8913;-65
2023/01/31 01:29:08;;;;;;;;;19.67;10.00;;;;;;;;5069076;28;11559;-67
2023/01/31 01:31:34;;;;;;;;;13.67;10.67;;;;;;;;5069127;28;8799;-66
2023/01/31 01:34:01;;;;;;;;;12.67;10.00;;;;;;;;5069330;28;8957;-65
2023/01/31 01:36:26;;;;;;;;;16.67;12.00;;;;;;;;5069524;28;8905;-66
2023/01/31 01:38:52;;;;;;;;;13.67;10.00;;;;;;;;5069325;28;8885;-65
2023/01/31 01:41:18;;;;;;;;;12.67;11.33;;;;;;;;5069122;28;8807;-65
2023/01/31 01:43:44;;;;;;;;;18.67;15.00;;;;;;;;5069395;28;9004;-65
2023/01/31 01:46:12;;;;;;;;;10.00;7.00;;;;;;;;5069212;28;8798;-66
2023/01/31 01:48:38;;;;;;;;;15.67;13.00;;;;;;;;5069192;28;8838;-67
2023/01/31 01:51:04;;;;;;;;;15.67;13.00;;;;;;;;5069181;28;8894;-64
2023/01/31 01:53:29;;;;;;;;;13.00;13.00;;;;;;;;5069296;28;8814;-66
2023/01/31 01:56:02;;;;;;;;;15.67;13.00;;;;;;;;5069225;28;8795;-66
2023/01/31 01:58:32;;;;;;;;;15.67;10.00;;;;;;;;5069171;28;8798;-66
2023/01/31 02:00:58;;;;;;;;;17.33;14.33;;;;;;;;5068843;28;8806;-66
2023/01/31 02:03:23;;;;;;;;;14.00;12.00;;;;;;;;5069130;28;8863;-66
2023/01/31 02:05:51;;;;;;;;;15.00;12.67;;;;;;;;5069217;28;8787;-65
2023/01/31 02:08:18;;;;;;;;;18.00;10.00;;;;;;;;5069127;28;8822;-65
2023/01/31 02:10:48;;;;;;;;;15.00;13.00;;;;;;;;5069131;28;8802;-65
2023/01/31 02:13:14;;;;;;;;;13.00;13.00;;;;;;;;5067620;28;8947;-65
2023/01/31 02:15:39;;;;;;;;;14.00;14.00;;;;;;;;5068927;28;8791;-65
2023/01/31 02:18:05;;;;;;;;;12.67;12.67;;;;;;;;5068888;28;8808;-67
2023/01/31 02:20:55;;;;;;;;;17.33;17.33;;;;;;;;5069137;28;8775;-65
2023/01/31 02:23:23;;;;;;;;;25.67;19.00;;;;;;;;5068965;28;8791;-65
2023/01/31 02:26:14;;;;;;;;;19.00;18.00;;;;;;;;5068759;28;8818;-66
2023/01/31 02:28:40;;;;;;;;;25.00;19.00;;;;;;;;5060160;28;8913;-65
2023/01/31 02:31:20;;;;;;;;;16.00;16.00;;;;;;;;5068774;28;8889;-65
2023/01/31 02:33:51;;;;;;;;;18.33;15.00;;;;;;;;5069930;28;8825;-66
2023/01/31 02:36:19;;;;;;;;;20.33;19.67;;;;;;;;5073118;28;8794;-65
2023/01/31 02:38:51;;;;;;;;;34.67;23.33;;;;;;;;5072832;28;9639;-66
2023/01/31 02:41:42;;;;;;;;;26.33;22.67;;;;;;;;5072710;28;8897;-66
2023/01/31 02:47:15;;;;;;;;;22.67;19.00;;;;;;;;5072285;28;8805;-65
2023/01/31 02:49:43;;;;;;;;;30.67;27.67;;;;;;;;5072146;28;8821;-65
2023/01/31 02:52:15;;;;;;;;;33.00;27.67;;;;;;;;5072644;28;8822;-65
2023/01/31 02:57:26;;;;;;;;;29.33;27.67;;;;;;;;5072086;28;8806;-65
2023/01/31 02:59:52;;;;;;;;;40.00;33.67;;;;;;;;5070665;28;8892;-65
2023/01/31 03:02:18;;;;;;;;;35.00;32.33;;;;;;;;5071889;28;8807;-65
2023/01/31 03:04:43;;;;;;;;;34.67;30.00;;;;;;;;5072016;28;8799;-66
2023/01/31 03:07:16;;;;;;;;;20.33;18.67;;;;;;;;5071923;28;8818;-65
2023/01/31 03:10:01;;;;;;;;;36.33;34.00;;;;;;;;5071675;28;8887;-66
2023/01/31 03:12:28;;;;;;;;;40.67;33.67;;;;;;;;5071764;28;8809;-66
2023/01/31 03:15:02;;;;;;;;;28.00;25.00;;;;;;;;5071723;28;8775;-65
2023/01/31 03:17:48;;;;;;;;;32.33;28.67;;;;;;;;5071384;28;8856;-65
2023/01/31 03:20:22;;;;;;;;;28.33;27.67;;;;;;;;5070930;28;8811;-65
2023/01/31 03:22:53;;;;;;;;;33.00;26.67;;;;;;;;5071472;28;8810;-65
2023/01/31 03:25:20;;;;;;;;;27.00;21.67;;;;;;;;5071496;28;8801;-66
2023/01/31 03:27:51;;;;;;;;;22.67;18.00;;;;;;;;5071644;28;8806;-66
2023/01/31 03:30:20;;;;;;;;;25.00;18.67;;;;;;;;5071441;28;8787;-66
2023/01/31 03:32:52;;;;;;;;;22.67;21.33;;;;;;;;5071139;28;9512;-66
2023/01/31 03:35:19;;;;;;;;;26.33;22.67;;;;;;;;5071165;28;8797;-64
2023/01/31 03:38:14;;;;;;;;;33.00;26.33;;;;;;;;5071441;28;8803;-66
2023/01/31 03:40:44;;;;;;;;;34.67;25.67;;;;;;;;5028533;28;8816;-66
2023/01/31 03:43:21;;;;;;;;;26.00;24.00;;;;;;;;5029114;28;8887;-67
2023/01/31 03:45:57;;;;;;;;;30.67;26.33;;;;;;;;5028622;28;8788;-68
2023/01/31 03:48:27;;;;;;;;;39.00;33.33;;;;;;;;5028840;28;8839;-67
2023/01/31 03:50:56;;;;;;;;;28.67;22.00;;;;;;;;5029674;28;8819;-66
2023/01/31 03:53:27;;;;;;;;;32.67;26.00;;;;;;;;5028878;28;9597;-66
2023/01/31 03:55:58;;;;;;;;;28.33;24.67;;;;;;;;5028775;28;8827;-67
2023/01/31 03:58:27;;;;;;;;;32.67;26.33;;;;;;;;5028412;28;8824;-66
2023/01/31 04:00:53;;;;;;;;;31.33;24.00;;;;;;;;5028381;28;9632;-66
2023/01/31 04:03:34;;;;;;;;;25.67;22.00;;;;;;;;5028332;28;8797;-66
2023/01/31 04:06:00;;;;;;;;;28.33;22.00;;;;;;;;5028002;28;8808;-66
2023/01/31 04:08:25;;;;;;;;;31.00;26.33;;;;;;;;5028639;28;8835;-67
2023/01/31 04:10:51;;;;;;;;;24.67;23.33;;;;;;;;5028265;28;8820;-66
2023/01/31 04:13:16;;;;;;;;;30.33;24.33;;;;;;;;5011703;28;8951;-67
2023/01/31 04:15:41;;;;;;;;;26.33;24.33;;;;;;;;5028243;28;8836;-66
2023/01/31 04:18:07;;;;;;;;;24.33;23.33;;;;;;;;5065431;28;8848;-67
2023/01/31 04:20:32;;;;;;;;;27.00;20.67;;;;;;;;5070283;28;8899;-67
2023/01/31 04:22:58;;;;;;;;;32.33;26.33;;;;;;;;5070693;28;8786;-66
2023/01/31 04:25:24;;;;;;;;;32.33;30.00;;;;;;;;5070364;28;8867;-66
2023/01/31 04:27:50;;;;;;;;;31.67;27.67;;;;;;;;5070535;28;8790;-66
2023/01/31 04:30:16;;;;;;;;;32.33;27.00;;;;;;;;5070320;28;8883;-66
2023/01/31 04:32:41;;;;;;;;;23.00;21.00;;;;;;;;5070295;28;8783;-68
2023/01/31 04:35:06;;;;;;;;;27.33;25.00;;;;;;;;5070092;28;8794;-66
2023/01/31 04:37:32;;;;;;;;;26.33;24.33;;;;;;;;5070399;28;8953;-66
2023/01/31 04:39:58;;;;;;;;;34.00;28.00;;;;;;;;5070020;28;8838;-67
2023/01/31 04:42:23;;;;;;;;;31.50;28.00;;;;;;;;5070052;28;8782;-66
2023/01/31 04:44:48;;;;;;;;;28.50;27.00;;;;;;;;5070318;28;8821;-66
2023/01/31 04:47:14;;;;;;;;;35.25;30.50;;;;;;;;5069966;28;9569;-66
2023/01/31 04:49:39;;;;;;;;;36.00;30.00;;;;;;;;5069984;28;8779;-67
2023/01/31 04:52:04;;;;;;;;;31.25;25.50;;;;;;;;5069946;28;8986;-66
2023/01/31 04:54:30;;;;;;;;;30.50;25.50;;;;;;;;5070206;28;8814;-66
2023/01/31 04:56:55;;;;;;;;;30.50;27.75;;;;;;;;5069509;28;8810;-66
2023/01/31 04:59:20;;;;;;;;;27.25;22.50;;;;;;;;5070011;28;8902;-67
2023/01/31 05:01:45;;;;;;;;;35.50;32.50;;;;;;;;5069849;28;8875;-66
2023/01/31 05:04:11;;;;;;;;;30.50;27.50;;;;;;;;5068738;28;8795;-66
2023/01/31 05:06:37;;;;;;;;;31.75;29.25;;;;;;;;5069625;28;9545;-67
2023/01/31 05:09:02;;;;;;;;;38.50;31.75;;;;;;;;5069641;28;8806;-66
2023/01/31 05:11:28;;;;;;;;;8.00;1.00;;;;;;;;5069472;28;8941;-67
2023/01/31 05:13:53;;;;;;;;;32.75;27.50;;;;;;;;5089830;28;8800;-67
2023/01/31 05:16:18;;;;;;;;;30.00;24.67;;;;;;;;5090089;28;8887;-66
2023/01/31 05:18:43;;;;;;;;;27.00;19.00;;;;;;;;5090003;28;8823;-66
2023/01/31 05:21:09;;;;;;;;;21.33;21.00;;;;;;;;5088407;28;8882;-66
2023/01/31 05:23:34;;;;;;;;;29.33;21.00;;;;;;;;5089658;28;8792;-66
2023/01/31 05:26:00;;;;;;;;;18.33;16.67;;;;;;;;5089916;28;8785;-67
2023/01/31 05:28:25;;;;;;;;;19.67;17.33;;;;;;;;5088576;28;8873;-66
2023/01/31 05:30:53;;;;;;;;;23.33;18.00;;;;;;;;5089814;28;8776;-67
2023/01/31 05:33:19;;;;;;;;;17.67;16.67;;;;;;;;5089779;28;9533;-67
2023/01/31 05:35:45;;;;;;;;;18.33;15.00;;;;;;;;5089734;28;8854;-66
2023/01/31 05:38:10;;;;;;;;;13.00;11.33;;;;;;;;5090150;28;8808;-67
2023/01/31 05:40:36;;;;;;;;;12.67;10.00;;;;;;;;5089691;28;8800;-67
2023/01/31 05:43:01;;;;;;;;;16.00;14.33;;;;;;;;5090051;28;8792;-67
2023/01/31 05:45:27;;;;;;;;;15.33;12.00;;;;;;;;5090114;28;8776;-67
2023/01/31 05:47:52;;;;;;;;;13.67;12.67;;;;;;;;5089472;28;8820;-67
2023/01/31 05:50:18;;;;;;;;;12.33;10.67;;;;;;;;5089360;28;8803;-67
2023/01/31 05:52:49;;;;;;;;;14.00;11.33;;;;;;;;5089515;28;8796;-67
2023/01/31 05:55:14;;;;;;;;;12.00;12.00;;;;;;;;5089438;28;8946;-67
2023/01/31 05:57:39;;;;;;;;;15.67;13.67;;;;;;;;5089622;28;8891;-66
2023/01/31 06:00:05;;;;;;;;;13.00;12.00;;;;;;;;5089510;28;8803;-66
2023/01/31 06:02:32;;;;;;;;;8.00;6.67;;;;;;;;5088221;28;8788;-67
2023/01/31 06:04:57;;;;;;;;;21.33;15.33;;;;;;;;5089359;28;8791;-68
2023/01/31 06:07:22;;;;;;;;;16.00;13.67;;;;;;;;5078563;28;9601;-66
2023/01/31 06:09:48;;;;;;;;;27.25;20.50;;;;;;;;5074469;28;8999;-67
2023/01/31 06:12:13;;;;;;;;;12.67;12.00;;;;;;;;5076277;28;8812;-67
2023/01/31 06:14:39;;;;;;;;;17.33;13.67;;;;;;;;5092241;28;8795;-66
2023/01/31 06:17:04;;;;;;;;;13.33;11.67;;;;;;;;5093237;28;8820;-69
2023/01/31 06:19:30;;;;;;;;;5.33;5.33;;;;;;;;5093161;28;8884;-69
2023/01/31 06:21:55;;;;;;;;;10.67;7.00;;;;;;;;5079109;28;8801;-67
2023/01/31 06:24:20;;;;;;;;;11.33;6.33;;;;;;;;5051349;28;8818;-68
2023/01/31 06:26:46;;;;;;;;;4.67;3.00;;;;;;;;5051569;28;9547;-68
2023/01/31 06:29:11;;;;;;;;;12.00;9.33;;;;;;;;5051887;28;8820;-67
2023/01/31 06:31:36;;;;;;;;;18.00;13.00;;;;;;;;5092585;28;8796;-66
2023/01/31 06:34:02;;;;;;;;;12.33;9.00;;;;;;;;5092825;28;8792;-67
2023/01/31 06:36:29;;;;;;;;;13.00;10.00;;;;;;;;5093159;28;8796;-66
2023/01/31 06:38:55;;;;;;;;;9.67;9.67;;;;;;;;5065015;28;8860;-65
2023/01/31 06:41:20;;;;;;;;;10.00;10.00;;;;;;;;5058987;28;8817;-63
2023/01/31 06:43:45;;;;;;;;;16.00;12.33;;;;;;;;5067528;28;8894;-63
2023/01/31 06:46:11;;;;;;;;;13.67;13.67;;;;;;;;5071972;28;8997;-64
2023/01/31 06:48:36;;;;;;;;;7.00;7.00;;;;;;;;5071776;28;8806;-63
2023/01/31 06:51:01;;;;;;;;;12.33;9.67;;;;;;;;5072204;28;8790;-64
2023/01/31 06:53:27;;;;;;;;;12.67;12.67;;;;;;;;5070071;28;8802;-65
2023/01/31 06:55:52;;;;;;;;;15.00;12.00;;;;;;;;5071760;28;8794;-65
2023/01/31 06:58:17;;;;;;;;;6.33;3.67;;;;;;;;5089732;28;8843;-68
2023/01/31 07:00:43;;;;;;;;;14.33;11.33;;;;;;;;5089141;28;8801;-63
2023/01/31 07:03:08;;;;;;;;;15.33;12.00;;;;;;;;5092155;28;8805;-66
2023/01/31 07:05:33;;;;;;;;;9.67;9.00;;;;;;;;5092387;28;8910;-64
2023/01/31 07:07:58;;;;;;;;;5.33;2.33;;;;;;;;5088211;28;9545;-64
2023/01/31 07:10:24;;;;;;;;;9.33;9.33;;;;;;;;5071753;28;8945;-64
2023/01/31 07:12:49;;;;;;;;;15.00;13.00;;;;;;;;5071913;28;8822;-64
2023/01/31 07:15:14;;;;;;;;;12.33;12.00;;;;;;;;5071768;28;8974;-64
2023/01/31 07:17:39;;;;;;;;;13.00;12.00;;;;;;;;5071169;28;8860;-65
2023/01/31 07:20:05;;;;;;;;;15.67;10.00;;;;;;;;5071217;28;8782;-64
2023/01/31 07:22:30;;;;;;;;;10.67;10.67;;;;;;;;5071501;28;8889;-64
2023/01/31 07:24:56;;;;;;;;;17.33;15.33;;;;;;;;5071600;28;9525;-64
2023/01/31 07:27:22;;;;;;;;;12.00;10.00;;;;;;;;5070378;28;8818;-65
2023/01/31 07:29:47;;;;;;;;;16.00;16.00;;;;;;;;5083368;28;8880;-67
2023/01/31 07:32:12;;;;;;;;;13.67;12.00;;;;;;;;5091305;28;8826;-67
2023/01/31 07:34:38;;;;;;;;;19.33;13.00;;;;;;;;5085396;28;8803;-68
2023/01/31 07:37:03;;;;;;;;;10.00;10.00;;;;;;;;5069659;28;8985;-67
2023/01/31 07:39:28;;;;;;;;;12.00;12.00;;;;;;;;5071022;28;8807;-67
2023/01/31 07:41:54;;;;;;;;;10.67;10.67;;;;;;;;5071007;28;8861;-66
2023/01/31 07:44:19;;;;;;;;;13.67;12.00;;;;;;;;5069523;28;8802;-67
2023/01/31 07:46:45;;;;;;;;;13.67;11.33;;;;;;;;5083598;28;8815;-68
2023/01/31 07:49:10;;;;;;;;;12.50;11.00;;;;;;;;5091023;28;8779;-66
2023/01/31 07:51:37;;;;;;;;;11.00;10.25;;;;;;;;5091080;28;8800;-67
2023/01/31 07:54:03;;;;;;;;;11.50;11.50;;;;;;;;5089493;28;8930;-69
2023/01/31 07:56:28;;;;;;;;;12.25;12.25;;;;;;;;5086443;28;11676;-67
2023/01/31 07:58:53;;;;;;;;;13.75;12.00;;;;;;;;5078806;28;8835;-67
2023/01/31 08:04:07;;;;;;;;;35.50;26.50;;;;;;;;5075760;28;8806;-67
2023/01/31 08:06:33;;;;;;;;;31.75;25.25;;;;;;;;5080515;28;11644;-67
2023/01/31 08:08:59;;;;;;;;;19.00;16.75;;;;;;;;5078185;28;12359;-67
2023/01/31 08:11:25;;;;;;;;;28.00;19.25;;;;;;;;5070260;28;8863;-67
2023/01/31 08:13:50;;;;;;;;;35.00;31.75;;;;;;;;5069698;28;11451;-66
2023/01/31 08:16:15;;;;;;;;;40.00;37.75;;;;;;;;5070248;28;8876;-66
2023/01/31 08:18:41;;;;;;;;;25.00;25.00;;;;;;;;5070293;28;8802;-66
2023/01/31 08:21:07;;;;;;;;;23.75;18.75;;;;;;;;5069246;28;8806;-66
2023/01/31 08:23:32;;;;;;;;;22.50;16.50;;;;;;;;5070298;28;8786;-66
2023/01/31 08:26:09;;;;;;;;;17.25;12.75;;;;;;;;5070204;28;12400;-66
2023/01/31 08:28:35;;;;;;;;;11.00;11.00;;;;;;;;5070233;28;8794;-66
2023/01/31 08:31:03;;;;;;;;;18.75;16.00;;;;;;;;5069181;28;11474;-65
2023/01/31 08:33:28;;;;;;;;;18.50;15.25;;;;;;;;5069447;28;11512;-68
2023/01/31 08:35:53;;;;;;;;;14.00;14.00;;;;;;;;5069626;28;11479;-66
2023/01/31 08:38:19;;;;;;;;;15.50;15.00;;;;;;;;5070006;28;8818;-67
2023/01/31 08:40:44;;;;;;;;;15.00;13.25;;;;;;;;5069929;28;8917;-66
2023/01/31 08:43:10;;;;;;;;;20.00;16.00;;;;;;;;5069825;28;8834;-66
2023/01/31 08:45:35;;;;;;;;;19.00;18.50;;;;;;;;5070066;28;8901;-65
2023/01/31 08:48:01;;;;;;;;;16.50;13.75;;;;;;;;5069546;28;8872;-67
2023/01/31 08:50:28;;;;;;;;;19.00;19.00;;;;;;;;5070207;28;9473;-66
2023/01/31 08:52:54;;;;;;;;;20.00;17.00;;;;;;;;5069899;28;8806;-66
2023/01/31 08:55:19;;;;;;;;;25.33;18.67;;;;;;;;5069858;28;11498;-67
2023/01/31 08:57:45;;;;;;;;;21.00;16.00;;;;;;;;5069859;28;8938;-67
2023/01/31 09:00:10;;;;;;;;;10.67;10.00;;;;;;;;5070149;28;8779;-67
2023/01/31 09:02:36;;;;;;;;;22.00;17.33;;;;;;;;5070020;28;8787;-65
2023/01/31 09:05:01;;;;;;;;;21.00;18.67;;;;;;;;5068440;28;8802;-66
2023/01/31 09:07:26;;;;;;;;;20.33;18.67;;;;;;;;5066093;28;8846;-66
2023/01/31 09:09:51;;;;;;;;;15.33;12.33;;;;;;;;5069302;28;9027;-66
2023/01/31 09:12:17;;;;;;;;;17.33;17.33;;;;;;;;5069387;28;8794;-67
2023/01/31 09:14:42;;;;;;;;;21.67;20.33;;;;;;;;5069584;28;8933;-68
2023/01/31 09:17:09;;;;;;;;;24.00;21.33;;;;;;;;5074274;28;8851;-65
2023/01/31 09:19:34;;;;;;;;;21.33;17.33;;;;;;;;5089452;28;8800;-66
2023/01/31 09:22:00;;;;;;;;;22.00;20.33;;;;;;;;5089207;28;8915;-67
2023/01/31 09:24:25;;;;;;;;;23.33;21.00;;;;;;;;5089072;28;8823;-67
2023/01/31 09:26:53;;;;;;;;;21.00;18.67;;;;;;;;5084025;28;8837;-67
2023/01/31 09:29:18;;;;;;;;;15.33;15.33;;;;;;;;5080000;28;8820;-66
2023/01/31 09:31:43;;;;;;;;;19.67;16.33;;;;;;;;5078061;28;8966;-66
2023/01/31 09:34:08;;;;;;;;;25.67;21.67;;;;;;;;5079788;28;8830;-66
2023/01/31 09:36:33;;;;;;;;;21.33;15.33;;;;;;;;5077682;28;8842;-66
2023/01/31 09:38:59;;;;;;;;;18.00;18.00;;;;;;;;5078365;28;8899;-66
2023/01/31 09:41:43;;;;;;;;;21.00;18.00;;;;;;;;5079318;28;8818;-67
2023/01/31 09:44:14;;;;;;;;;20.67;19.67;;;;;;;;5088038;28;8835;-66
2023/01/31 09:46:41;;;;;;;;;15.67;13.33;;;;;;;;5089168;28;8871;-66
2023/01/31 09:49:09;;;;;;;;;26.33;19.67;;;;;;;;5088911;28;8819;-68
2023/01/31 09:51:37;;;;;;;;;22.00;22.00;;;;;;;;5088932;28;8783;-68
2023/01/31 09:54:06;;;;;;;;;24.33;21.00;;;;;;;;5088764;28;8796;-68
2023/01/31 09:56:39;;;;;;;;;19.67;19.67;;;;;;;;5088580;28;8819;-68
2023/01/31 09:59:29;;;;;;;;;27.33;19.67;;;;;;;;5088820;28;8780;-67
2023/01/31 10:01:59;;;;;;;;;24.00;22.00;;;;;;;;5088816;28;8858;-67
2023/01/31 10:04:37;;;;;;;;;20.33;18.33;;;;;;;;5086246;28;9592;-68
2023/01/31 10:07:03;;;;;;;;;21.67;21.00;;;;;;;;5088300;28;8803;-66
2023/01/31 10:09:32;;;;;;;;;17.67;16.67;;;;;;;;5071431;28;8953;-67
2023/01/31 10:11:59;;;;;;;;;22.33;19.00;;;;;;;;5068361;28;9587;-67
2023/01/31 10:14:27;;;;;;;;;20.67;16.00;;;;;;;;5067433;28;8841;-67
2023/01/31 10:17:01;;;;;;;;;27.67;25.00;;;;;;;;5068503;28;8771;-66
2023/01/31 10:19:35;;;;;;;;;27.33;22.67;;;;;;;;5068749;28;8971;-66
2023/01/31 10:22:04;;;;;;;;;25.33;22.33;;;;;;;;5068669;28;8775;-66
2023/01/31 10:24:35;;;;;;;;;23.33;20.00;;;;;;;;5068413;28;8786;-66
2023/01/31 10:27:04;;;;;;;;;25.33;22.00;;;;;;;;5068736;28;8807;-66
2023/01/31 10:29:35;;;;;;;;;23.00;23.00;;;;;;;;5068347;28;8822;-67
2023/01/31 10:32:05;;;;;;;;;26.00;22.33;;;;;;;;5068111;28;8783;-67
2023/01/31 10:34:44;;;;;;;;;26.67;26.67;;;;;;;;5068634;28;8814;-66
2023/01/31 10:37:15;;;;;;;;;28.00;23.67;;;;;;;;5068815;28;8837;-67
2023/01/31 10:39:45;;;;;;;;;29.00;24.33;;;;;;;;5068031;28;8817;-67
2023/01/31 10:42:10;;;;;;;;;23.67;20.00;;;;;;;;5067046;28;9663;-66
2023/01/31 10:44:38;;;;;;;;;20.67;20.00;;;;;;;;5066914;28;8913;-66
2023/01/31 10:47:08;;;;;;;;;30.00;25.67;;;;;;;;5068201;28;8895;-66
2023/01/31 10:49:33;;;;;;;;;17.67;16.67;;;;;;;;5067850;28;11596;-67
2023/01/31 10:52:07;;;;;;;;;29.00;26.67;;;;;;;;5068171;28;8891;-66
2023/01/31 10:54:35;;;;;;;;;32.67;25.33;;;;;;;;5068568;28;8942;-65
2023/01/31 10:57:01;;;;;;;;;32.33;25.33;;;;;;;;5071573;28;11567;-66
2023/01/31 10:59:26;;;;;;;;;30.33;23.33;;;;;;;;5070223;28;8875;-65
2023/01/31 11:01:51;;;;;;;;;24.67;21.67;;;;;;;;5071686;28;8758;-66
2023/01/31 11:04:23;;;;;;;;;29.00;21.00;;;;;;;;5071682;28;8803;-67
2023/01/31 11:06:48;;;;;;;;;31.00;27.67;;;;;;;;5071590;28;8845;-67
2023/01/31 11:09:14;;;;;;;;;34.00;24.67;;;;;;;;5070868;28;8807;-66
2023/01/31 11:11:52;;;;;;;;;40.00;29.67;;;;;;;;5071604;28;8821;-67
2023/01/31 11:14:17;;;;;;;;;31.00;24.33;;;;;;;;5071868;28;9702;-67
2023/01/31 11:16:44;;;;;;;;;35.75;31.00;;;;;;;;5071335;28;11644;-68
2023/01/31 11:19:32;;;;;;;;;35.25;29.75;;;;;;;;5070159;28;8803;-66
2023/01/31 11:21:58;;;;;;;;;30.00;28.50;;;;;;;;5068285;28;11627;-66
2023/01/31 11:24:25;;;;;;;;;26.25;23.25;;;;;;;;5069698;28;12245;-67
2023/01/31 11:26:57;;;;;;;;;30.00;26.00;;;;;;;;5071177;28;8787;-66
2023/01/31 11:29:30;;;;;;;;;25.50;24.50;;;;;;;;5070987;28;10075;-66
2023/01/31 11:31:57;;;;;;;;;28.75;26.75;;;;;;;;5071174;28;9910;-66
2023/01/31 11:34:24;;;;;;;;;30.00;28.33;;;;;;;;5071520;28;9547;-66
2023/01/31 11:36:50;;;;;;;;;29.67;26.00;;;;;;;;5071498;28;9190;-66
2023/01/31 11:39:38;;;;;;;;;26.00;25.00;;;;;;;;5070776;28;8981;-67
2023/01/31 11:42:12;;;;;;;;;28.25;26.75;;;;;;;;5071088;28;8794;-67
2023/01/31 11:44:52;;;;;;;;;30.75;27.00;;;;;;;;5071256;28;8929;-67
2023/01/31 11:47:18;;;;;;;;;32.33;28.33;;;;;;;;5070453;28;8794;-67
2023/01/31 11:49:49;;;;;;;;;23.25;22.75;;;;;;;;5070895;28;9273;-67
2023/01/31 11:52:15;;;;;;;;;28.25;26.75;;;;;;;;5070996;28;8795;-66
2023/01/31 11:57:12;;;;;;;;;28.75;24.75;;;;;;;;5103248;27;13682;-66
2023/01/31 11:59:37;;;;;;;;;31.75;27.25;;;;;;;;5106662;28;11445;-66
2023/01/31 12:02:03;;;;;;;;;31.25;24.25;;;;;;;;5106520;28;11515;-66
2023/01/31 12:04:33;;;;;;;;;35.25;29.00;;;;;;;;5106460;28;8899;-66
2023/01/31 12:07:05;;;;;;;;;39.25;35.00;;;;;;;;5106650;28;8872;-66
2023/01/31 12:09:40;;;;;;;;;52.75;43.00;;;;;;;;5106139;28;11619;-66
2023/01/31 12:12:25;;;;;;;;;40.75;36.00;;;;;;;;5104938;28;12288;-66
2023/01/31 12:14:50;;;;;;;;;36.50;30.25;;;;;;;;5106234;28;11500;-66
2023/01/31 12:17:17;;;;;;;;;28.75;27.50;;;;;;;;5106292;28;11610;-66
2023/01/31 12:19:42;;;;;;;;;30.75;27.00;;;;;;;;5106121;28;8792;-67
2023/01/31 12:22:26;;;;;;;;;28.25;24.25;;;;;;;;5105934;28;12246;-66
2023/01/31 12:25:09;;;;;;;;;57.75;44.50;;;;;;;;5106136;28;8878;-65
2023/01/31 12:27:55;;;;;;;;;51.75;38.25;;;;;;;;5106148;28;11606;-65
2023/01/31 12:30:23;;;;;;;;;46.25;40.00;;;;;;;;5105963;28;11521;-65
2023/01/31 12:32:51;;;;;;;;;32.50;31.25;;;;;;;;5106268;28;12221;-65
2023/01/31 12:35:35;;;;;;;;;25.50;22.25;;;;;;;;5105976;28;11506;-65
2023/01/31 12:38:12;;;;;;;;;24.75;21.25;;;;;;;;5106068;28;11003;-65
2023/01/31 12:40:56;;;;;;;;;21.25;18.00;;;;;;;;5105433;28;11522;-65
2023/01/31 12:43:29;;;;;;;;;26.50;21.75;;;;;;;;5105986;28;11480;-67
2023/01/31 12:46:11;;;;;;;;;21.50;20.00;;;;;;;;5106049;28;12304;-66
2023/01/31 12:48:46;;;;;;;;;16.50;16.00;;;;;;;;5105691;28;11501;-66
2023/01/31 12:51:26;;;;;;;;;26.00;21.00;;;;;;;;5105753;28;11463;-66
2023/01/31 12:54:03;;;;;;;;;24.00;20.25;;;;;;;;5105713;28;10935;-66
2023/01/31 12:56:28;;;;;;;;;18.25;16.50;;;;;;;;5105543;28;11530;-66
2023/01/31 12:59:01;;;;;;;;;25.00;18.00;;;;;;;;5103829;28;11631;-66
2023/01/31 13:01:33;;;;;;;;;18.50;16.75;;;;;;;;5105370;28;8871;-66
2023/01/31 13:04:24;;;;;;;;;21.25;17.75;;;;;;;;5105675;28;11554;-65
2023/01/31 13:06:52;;;;;;;;;19.75;16.75;;;;;;;;5091925;28;11507;-66
2023/01/31 13:09:25;;;;;;;;;22.00;19.75;;;;;;;;5091850;28;11492;-66
2023/01/31 13:11:50;;;;;;;;;19.75;18.50;;;;;;;;5091653;28;11487;-65
2023/01/31 13:14:23;;;;;;;;;27.50;21.50;;;;;;;;5091807;28;12211;-65
2023/01/31 13:16:54;;;;;;;;;29.00;22.75;;;;;;;;5091895;28;9714;-65
2023/01/31 13:19:25;;;;;;;;;25.00;20.50;;;;;;;;5091248;28;11584;-65
2023/01/31 13:21:52;;;;;;;;;21.75;20.00;;;;;;;;5091382;28;11475;-66
2023/01/31 13:24:20;;;;;;;;;28.25;18.50;;;;;;;;5089772;28;11550;-66
2023/01/31 13:26:56;;;;;;;;;23.75;18.75;;;;;;;;5091353;28;11568;-66
2023/01/31 13:29:21;;;;;;;;;25.00;20.00;;;;;;;;5090176;28;11501;-66
2023/01/31 13:31:58;;;;;;;;;26.50;24.00;;;;;;;;5091462;28;12337;-66
2023/01/31 13:34:27;;;;;;;;;18.50;17.25;;;;;;;;5091519;28;8812;-66
2023/01/31 13:36:59;;;;;;;;;21.50;20.00;;;;;;;;5102815;22;11584;-66
2023/01/31 13:39:42;;;;;;;;;24.25;18.75;;;;;;;;5065801;28;11495;-65
2023/01/31 13:42:09;;;;;;;;;20.50;18.50;;;;;;;;5070974;28;11474;-65
2023/01/31 13:44:34;;;;;;;;;29.25;21.75;;;;;;;;5070975;28;12273;-66
2023/01/31 13:47:19;;;;;;;;;25.00;18.50;;;;;;;;5070893;28;11503;-66
2023/01/31 13:49:55;;;;;;;;;25.25;20.00;;;;;;;;5070916;28;8776;-66
2023/01/31 13:52:25;;;;;;;;;24.75;20.00;;;;;;;;5070770;28;11528;-66
2023/01/31 13:54:53;;;;;;;;;73.67;56.00;;;;;;;;5070699;28;11487;-67
2023/01/31 13:57:29;;;;;;;;;22.50;20.25;;;;;;;;5068845;28;8937;-66
2023/01/31 14:00:01;;;;;;;;;21.75;19.00;;;;;;;;5070582;28;11474;-65
2023/01/31 14:02:26;;;;;;;;;23.25;20.50;;;;;;;;5070690;28;11486;-66
2023/01/31 14:04:51;;;;;;;;;21.50;18.00;;;;;;;;5070446;28;11492;-66
2023/01/31 14:07:18;;;;;;;;;22.25;19.75;;;;;;;;5070439;28;8784;-66
2023/01/31 14:10:03;;;;;;;;;20.25;18.75;;;;;;;;5070320;28;8796;-66
2023/01/31 14:12:35;;;;;;;;;15.75;14.50;;;;;;;;5068726;28;11490;-66
2023/01/31 14:15:09;;;;;;;;;19.75;18.75;;;;;;;;5069724;28;11532;-66
2023/01/31 14:17:34;;;;;;;;;20.00;15.00;;;;;;;;5070417;28;11527;-66
2023/01/31 14:19:59;;;;;;;;;20.75;16.50;;;;;;;;5069086;28;11459;-66
2023/01/31 14:22:26;;;;;;;;;20.00;16.50;;;;;;;;5068902;28;8808;-66
2023/01/31 14:25:01;;;;;;;;;18.75;16.50;;;;;;;;5070121;28;8808;-66
2023/01/31 14:27:32;;;;;;;;;22.25;19.00;;;;;;;;5068685;28;12227;-66
2023/01/31 14:30:03;;;;;;;;;22.75;19.00;;;;;;;;5070074;28;11482;-66
2023/01/31 14:32:32;;;;;;;;;16.50;15.25;;;;;;;;5070031;28;11501;-66
2023/01/31 14:35:01;;;;;;;;;14.25;14.25;;;;;;;;5068015;28;11493;-66
2023/01/31 14:37:45;;;;;;;;;18.00;15.75;;;;;;;;5071883;22;11564;-67
2023/01/31 14:40:15;;;;;;;;;17.25;14.75;;;;;;;;5009984;28;11528;-67
2023/01/31 14:42:43;;;;;;;;;16.25;14.75;;;;;;;;5010125;28;11607;-67
2023/01/31 14:45:47;;;;;;;;;13.25;13.25;;;;;;;;5009899;28;11549;-66
2023/01/31 14:48:38;;;;;;;;;16.00;14.75;;;;;;;;5027032;28;11500;-66